Time;durP1;ratioP1;P1;durP2;ratioP2;P2;SDS_P1;SDS_P2;PMS_P1;PMS_P2;Temp;Humidity;BMP_temperature;BMP_pressure;BME280_temperature;BME280_humidity;BME280_pressure;Samples;Min_cycle;Max_cycle;Signal;HPM_P1;HPM_P2
2022/10/31 00:00:43;;;;;;;9.13;6.50;;;;;;;10.33;100.00;96817.28;5071332;27;105100;-67
2022/10/31 00:03:10;;;;;;;9.70;7.13;;;;;;;10.54;100.00;96819.25;5071876;27;101986;-67
2022/10/31 00:05:41;;;;;;;13.07;8.57;;;;;;;10.65;100.00;96815.72;5071934;27;103764;-67
2022/10/31 00:08:10;;;;;;;10.57;8.60;;;;;;;10.71;100.00;96818.25;5071175;27;105462;-67
2022/10/31 00:10:38;;;;;;;12.33;5.87;;;;;;;10.85;100.00;96816.88;5071955;27;101946;-67
2022/10/31 00:13:05;;;;;;;12.83;8.17;;;;;;;10.97;100.00;96820.25;5076016;27;102282;-67
2022/10/31 00:15:33;;;;;;;13.73;7.70;;;;;;;10.95;100.00;96817.03;5071663;27;102170;-67
2022/10/31 00:18:01;;;;;;;11.10;7.93;;;;;;;10.98;100.00;96821.06;5071157;27;102529;-67
2022/10/31 00:20:28;;;;;;;11.57;6.23;;;;;;;10.97;100.00;96820.25;5070935;27;105340;-67
2022/10/31 00:22:59;;;;;;;9.60;6.23;;;;;;;11.04;100.00;96823.59;5071462;27;102003;-67
2022/10/31 00:25:29;;;;;;;12.13;7.00;;;;;;;11.02;100.00;96824.88;5071637;27;103635;-67
2022/10/31 00:27:55;;;;;;;12.03;7.90;;;;;;;11.03;100.00;96821.97;5071023;27;102814;-67
2022/10/31 00:30:23;;;;;;;6.57;5.70;;;;;;;10.99;100.00;96822.69;5071507;27;102095;-67
2022/10/31 00:32:51;;;;;;;11.37;7.07;;;;;;;10.78;100.00;96813.56;5071748;27;103565;-67
2022/10/31 00:35:18;;;;;;;8.47;5.53;;;;;;;10.74;100.00;96819.63;5073465;27;101813;-67
2022/10/31 00:37:45;;;;;;;9.30;5.40;;;;;;;10.66;100.00;96817.34;5071469;27;103991;-67
2022/10/31 00:40:13;;;;;;;6.90;4.70;;;;;;;10.56;100.00;96822.47;5070716;27;105451;-67
2022/10/31 00:42:42;;;;;;;9.57;5.20;;;;;;;10.46;100.00;96817.00;5070833;27;102372;-67
2022/10/31 00:45:11;;;;;;;8.97;5.53;;;;;;;10.39;100.00;96825.13;5071232;27;105279;-67
2022/10/31 00:47:39;;;;;;;7.87;5.40;;;;;;;10.37;100.00;96818.44;5070674;27;105520;-67
2022/10/31 00:50:06;;;;;;;6.77;5.40;;;;;;;10.30;100.00;96809.81;5071140;27;102419;-67
2022/10/31 00:52:35;;;;;;;9.77;6.80;;;;;;;10.22;100.00;96810.97;5070812;27;105178;-67
2022/10/31 00:55:04;;;;;;;10.87;5.97;;;;;;;10.22;100.00;96815.47;5074128;27;105082;-67
2022/10/31 00:57:32;;;;;;;8.43;5.60;;;;;;;10.16;100.00;96819.91;5071212;27;104661;-67
2022/10/31 01:00:00;;;;;;;9.67;5.80;;;;;;;9.99;100.00;96815.53;5070390;27;103933;-67
2022/10/31 01:02:29;;;;;;;7.83;5.97;;;;;;;9.92;100.00;96820.19;5071073;27;101864;-67
2022/10/31 01:04:56;;;;;;;9.87;5.50;;;;;;;9.92;100.00;96822.84;5070936;27;105714;-67
2022/10/31 01:07:23;;;;;;;10.23;6.27;;;;;;;9.76;100.00;96818.25;5070380;27;105306;-67
2022/10/31 01:09:51;;;;;;;8.50;5.27;;;;;;;9.70;100.00;96822.66;5070854;27;102150;-67
2022/10/31 01:12:18;;;;;;;9.83;5.30;;;;;;;9.63;100.00;96818.50;5070866;27;104674;-67
2022/10/31 01:14:46;;;;;;;6.40;4.90;;;;;;;9.57;100.00;96820.25;5070256;27;104947;-67
2022/10/31 01:17:15;;;;;;;7.37;4.87;;;;;;;9.70;100.00;96824.50;5074396;27;101887;-67
2022/10/31 01:19:42;;;;;;;6.07;4.83;;;;;;;9.59;100.00;96812.84;5071514;27;103141;-67
2022/10/31 01:22:09;;;;;;;7.93;5.37;;;;;;;9.50;100.00;96816.13;5070673;27;102180;-67
2022/10/31 01:24:36;;;;;;;7.53;4.43;;;;;;;9.55;100.00;96816.22;5070574;27;105441;-67
2022/10/31 01:27:03;;;;;;;6.73;5.07;;;;;;;9.34;100.00;96812.31;5070029;27;105998;-67
2022/10/31 01:29:34;;;;;;;9.87;4.77;;;;;;;9.32;100.00;96822.34;5069592;27;101841;-67
2022/10/31 01:32:01;;;;;;;6.43;5.00;;;;;;;9.32;100.00;96814.38;5070533;27;104833;-67
2022/10/31 01:34:30;;;;;;;10.17;4.87;;;;;;;9.39;100.00;96806.31;5069979;27;105576;-67
2022/10/31 01:36:57;;;;;;;8.37;4.60;;;;;;;9.37;100.00;96808.41;5070438;27;101942;-67
2022/10/31 01:39:24;;;;;;;7.63;5.20;;;;;;;9.28;100.00;96805.25;5073077;27;104770;-67
2022/10/31 01:41:54;;;;;;;10.70;6.03;;;;;;;9.32;100.00;96795.81;5070076;27;102015;-67
2022/10/31 01:44:52;;;;;;;10.67;6.93;;;;;;;9.34;100.00;96800.88;5070499;27;105521;-67
2022/10/31 01:47:29;;;;;;;9.90;5.70;;;;;;;9.38;100.00;96802.06;5069421;27;104006;-67
2022/10/31 01:50:11;;;;;;;7.23;5.30;;;;;;;9.39;100.00;96796.47;5051167;27;101508;-66
2022/10/31 01:52:41;;;;;;;10.10;5.13;;;;;;;9.28;100.00;96802.63;5047255;27;102561;-66
2022/10/31 01:55:12;;;;;;;7.83;6.07;;;;;;;9.33;100.00;96793.97;5046150;27;102135;-66
2022/10/31 01:57:43;;;;;;;7.73;5.47;;;;;;;9.37;100.00;96795.13;5045951;27;105295;-66
2022/10/31 02:00:12;;;;;;;7.53;5.47;;;;;;;9.38;100.00;96799.41;5046999;27;102521;-66
2022/10/31 02:02:47;;;;;;;8.03;6.50;;;;;;;9.34;100.00;96791.09;5045591;27;101861;-66
2022/10/31 02:05:20;;;;;;;6.50;5.43;;;;;;;9.46;100.00;96789.22;5045985;27;105383;-66
2022/10/31 02:07:52;;;;;;;9.13;5.17;;;;;;;9.49;100.00;96782.66;5046719;27;102499;-66
2022/10/31 02:10:22;;;;;;;10.03;5.60;;;;;;;9.45;100.00;96778.84;5050916;27;101870;-66
2022/10/31 02:12:51;;;;;;;8.27;6.23;;;;;;;9.54;100.00;96777.44;5044833;27;105488;-66
2022/10/31 02:15:18;;;;;;;6.10;5.50;;;;;;;9.56;100.00;96788.63;5045794;27;101962;-66
2022/10/31 02:17:46;;;;;;;8.37;5.73;;;;;;;9.30;100.00;96781.97;5028764;27;104851;-66
2022/10/31 02:20:20;;;;;;;7.77;5.97;;;;;;;9.26;100.00;96786.13;5045064;27;105473;-66
2022/10/31 02:23:11;;;;;;;7.33;5.47;;;;;;;9.13;100.00;96781.06;5045547;27;101984;-66
2022/10/31 02:25:57;;;;;;;7.13;5.00;;;;;;;9.14;100.00;96781.84;5045724;27;105265;-66
2022/10/31 02:28:41;;;;;;;6.07;5.13;;;;;;;9.13;100.00;96783.72;5044836;27;105597;-66
2022/10/31 02:31:30;;;;;;;8.23;4.97;;;;;;;9.02;100.00;96786.38;5045499;27;102188;-66
2022/10/31 02:34:05;;;;;;;7.03;5.10;;;;;;;9.02;100.00;96791.66;5047962;27;104980;-66
2022/10/31 02:36:42;;;;;;;7.60;4.70;;;;;;;8.99;100.00;96789.50;5045795;27;102129;-66
2022/10/31 02:39:15;;;;;;;8.03;4.43;;;;;;;8.98;100.00;96788.69;5045562;27;105479;-66
2022/10/31 02:41:51;;;;;;;8.97;4.93;;;;;;;8.89;100.00;96782.09;5044636;27;105043;-66
2022/10/31 02:44:28;;;;;;;6.90;4.83;;;;;;;8.87;100.00;96789.47;5079532;27;101887;-66
2022/10/31 02:47:01;;;;;;;8.23;5.23;;;;;;;8.91;100.00;96787.16;5045244;27;104822;-66
2022/10/31 02:49:33;;;;;;;7.33;4.83;;;;;;;8.89;100.00;96789.25;5043581;27;105267;-66
2022/10/31 02:52:00;;;;;;;5.07;4.57;;;;;;;8.86;100.00;96789.69;5045334;27;101834;-66
2022/10/31 02:54:29;;;;;;;9.03;5.80;;;;;;;8.87;100.00;96783.34;5045054;27;104788;-66
2022/10/31 02:57:01;;;;;;;6.43;5.20;;;;;;;8.90;100.00;96783.69;5047829;27;105501;-66
2022/10/31 02:59:32;;;;;;;8.17;4.70;;;;;;;8.84;100.00;96789.13;5042455;27;105036;-66
2022/10/31 03:02:16;;;;;;;7.67;4.90;;;;;;;8.85;100.00;96785.44;5030738;28;105457;-66
2022/10/31 03:05:20;;;;;;;7.50;4.90;;;;;;;8.84;100.00;96787.28;5031298;28;102251;-66
2022/10/31 03:07:57;;;;;;;6.27;3.93;;;;;;;8.82;100.00;96794.66;5028839;28;105311;-66
2022/10/31 03:10:34;;;;;;;7.40;5.67;;;;;;;8.78;100.00;96796.16;5030833;28;105100;-66
2022/10/31 03:13:10;;;;;;;8.10;5.27;;;;;;;8.80;100.00;96793.28;5032937;28;101750;-66
2022/10/31 03:15:40;;;;;;;9.20;5.20;;;;;;;8.78;100.00;96796.16;5030843;28;105278;-66
2022/10/31 03:18:14;;;;;;;7.37;4.97;;;;;;;8.76;100.00;96790.28;5030781;28;104549;-66
2022/10/31 03:20:45;;;;;;;9.03;4.83;;;;;;;8.79;100.00;96791.66;5034685;28;101898;-66
2022/10/31 03:23:16;;;;;;;6.17;4.93;;;;;;;8.86;100.00;96800.31;5030756;28;104326;-66
2022/10/31 03:25:48;;;;;;;8.83;4.60;;;;;;;8.82;100.00;96799.16;5031150;28;102288;-66
2022/10/31 03:28:20;;;;;;;6.47;4.97;;;;;;;8.62;100.00;96794.16;5030712;28;105184;-66
2022/10/31 03:30:50;;;;;;;6.03;3.83;;;;;;;8.52;100.00;96806.38;5030402;28;105397;-66
2022/10/31 03:33:23;;;;;;;6.63;4.10;;;;;;;8.58;100.00;96808.09;5031083;28;102299;-66
2022/10/31 03:35:54;;;;;;;7.50;4.70;;;;;;;8.55;100.00;96806.72;5031106;28;105027;-66
2022/10/31 03:38:23;;;;;;;11.03;4.27;;;;;;;8.63;100.00;96802.94;5030244;28;104427;-66
2022/10/31 03:40:52;;;;;;;9.93;5.20;;;;;;;8.63;100.00;96813.53;5030808;28;101932;-66
2022/10/31 03:43:25;;;;;;;6.07;4.60;;;;;;;8.58;100.00;96806.28;5033605;28;105453;-66
2022/10/31 03:45:53;;;;;;;5.33;4.03;;;;;;;8.51;100.00;96810.84;5030703;28;101753;-66
2022/10/31 03:48:23;;;;;;;9.00;4.90;;;;;;;8.58;100.00;96810.75;5029993;28;105541;-66
2022/10/31 03:51:00;;;;;;;6.83;4.43;;;;;;;8.52;100.00;96807.19;5030104;28;105395;-66
2022/10/31 03:53:35;;;;;;;6.80;5.23;;;;;;;8.50;100.00;96813.75;5030453;28;101923;-66
2022/10/31 03:56:10;;;;;;;7.43;4.80;;;;;;;8.47;100.00;96812.38;5030674;28;105101;-66
2022/10/31 03:58:44;;;;;;;9.50;4.70;;;;;;;8.45;100.00;96810.97;5029746;28;103711;-66
2022/10/31 04:01:17;;;;;;;7.40;5.00;;;;;;;8.46;100.00;96812.56;5030625;28;101873;-66
2022/10/31 04:03:46;;;;;;;8.43;4.80;;;;;;;8.43;100.00;96813.84;5030664;28;103399;-66
2022/10/31 04:06:18;;;;;;;6.47;4.80;;;;;;;8.40;100.00;96810.84;5032868;28;101821;-66
2022/10/31 04:08:49;;;;;;;6.47;4.77;;;;;;;8.38;100.00;96810.25;5030532;28;105174;-66
2022/10/31 04:11:22;;;;;;;5.20;4.40;;;;;;;8.41;100.00;96810.59;5029105;27;105061;-66
2022/10/31 04:14:08;;;;;;;7.03;5.20;;;;;;;8.27;100.00;96798.59;5030441;28;102265;-66
2022/10/31 04:16:39;;;;;;;6.53;4.03;;;;;;;8.17;100.00;96802.75;5030145;28;104973;-66
2022/10/31 04:19:08;;;;;;;4.80;3.93;;;;;;;8.26;100.00;96801.44;5029808;28;105158;-66
2022/10/31 04:21:35;;;;;;;8.57;4.87;;;;;;;8.16;100.00;96801.16;5030157;28;102080;-66
2022/10/31 04:24:02;;;;;;;9.30;5.20;;;;;;;8.13;100.00;96804.25;5030130;28;104821;-66
2022/10/31 04:26:30;;;;;;;6.47;4.23;;;;;;;8.23;100.00;96797.41;5032985;28;105398;-66
2022/10/31 04:28:58;;;;;;;9.07;4.87;;;;;;;8.31;100.00;96806.88;5029832;28;105283;-66
2022/10/31 04:31:28;;;;;;;8.50;5.20;;;;;;;8.29;100.00;96806.31;5029652;28;105407;-66
2022/10/31 04:33:55;;;;;;;6.63;5.23;;;;;;;8.22;100.00;96805.56;5029964;28;101893;-66
2022/10/31 04:36:25;;;;;;;7.37;4.60;;;;;;;8.31;100.00;96805.06;5030115;28;103748;-66
2022/10/31 04:38:54;;;;;;;8.13;5.03;;;;;;;8.36;100.00;96807.00;5029436;28;105489;-66
2022/10/31 04:41:39;;;;;;;8.83;5.20;;;;;;;8.24;100.00;96803.53;5029936;28;101843;-66
2022/10/31 04:44:13;;;;;;;6.30;5.43;;;;;;;8.13;100.00;96806.91;5029971;28;105523;-66
2022/10/31 04:46:41;;;;;;;4.87;4.37;;;;;;;8.10;100.00;96807.34;5029197;28;104973;-66
2022/10/31 04:49:09;;;;;;;6.03;4.43;;;;;;;8.16;100.00;96809.09;5032429;28;101884;-66
2022/10/31 04:51:40;;;;;;;6.40;4.73;;;;;;;8.06;100.00;96800.88;5029198;28;105024;-66
2022/10/31 04:54:09;;;;;;;7.83;4.50;;;;;;;8.00;100.00;96801.78;5029610;28;101786;-66
2022/10/31 04:56:56;;;;;;;7.07;4.47;;;;;;;8.02;100.00;96802.38;5031132;28;102048;-66
2022/10/31 04:59:24;;;;;;;5.60;4.30;;;;;;;8.04;100.00;96805.59;5029223;28;105224;-66
2022/10/31 05:01:55;;;;;;;7.50;5.17;;;;;;;7.99;100.00;96805.47;5029667;28;101895;-66
2022/10/31 05:04:39;;;;;;;7.80;5.07;;;;;;;8.02;100.00;96805.03;5029348;28;103585;-66
2022/10/31 05:07:07;;;;;;;7.53;4.50;;;;;;;8.07;100.00;96802.50;5019844;28;105385;-66
2022/10/31 05:09:35;;;;;;;5.23;4.13;;;;;;;8.00;100.00;96799.13;5020401;28;101776;-66
2022/10/31 05:12:28;;;;;;;6.20;4.67;;;;;;;8.04;100.00;96802.94;5023130;28;105220;-66
2022/10/31 05:15:07;;;;;;;9.70;5.53;;;;;;;8.07;100.00;96805.94;5008009;28;101823;-66
2022/10/31 05:18:07;;;;;;;7.40;4.33;;;;;;;8.07;100.00;96807.81;5020102;28;102363;-66
2022/10/31 05:21:03;;;;;;;7.97;4.40;;;;;;;7.94;100.00;96807.97;5007412;28;102474;-66
2022/10/31 05:23:41;;;;;;;6.17;4.40;;;;;;;7.92;100.00;96802.88;5010749;28;101702;-66
2022/10/31 05:26:22;;;;;;;5.87;4.47;;;;;;;7.89;100.00;96803.34;5009448;28;104884;-66
2022/10/31 05:28:49;;;;;;;6.10;4.73;;;;;;;7.90;100.00;96807.59;5008740;28;105739;-66
2022/10/31 05:32:09;;;;;;;7.30;5.60;;;;;;;7.92;100.00;96810.03;5009446;28;101851;-66
2022/10/31 05:35:08;;;;;;;7.27;4.90;;;;;;;8.00;100.00;96812.38;5007543;28;102616;-67
2022/10/31 05:37:55;;;;;;;10.17;5.13;;;;;;;8.10;100.00;96807.34;5012868;28;102948;-66
2022/10/31 05:40:23;;;;;;;8.77;5.43;;;;;;;8.10;100.00;96802.88;5009235;28;105200;-66
2022/10/31 05:43:06;;;;;;;10.57;5.90;;;;;;;8.24;100.00;96806.19;5008732;28;105364;-66
2022/10/31 05:45:33;;;;;;;11.27;5.73;;;;;;;8.12;100.00;96802.66;5009149;28;102046;-66
2022/10/31 05:48:04;;;;;;;7.60;5.47;;;;;;;8.14;100.00;96798.75;5008768;28;105478;-67
2022/10/31 05:51:10;;;;;;;7.70;5.10;;;;;;;8.13;100.00;96805.06;5009358;28;104264;-66
2022/10/31 05:53:38;;;;;;;9.13;4.73;;;;;;;8.01;100.00;96795.47;5009256;28;101845;-66
2022/10/31 05:59:32;;;;;;;6.33;4.47;;;;;;;7.78;100.00;96805.94;5009801;28;102920;-66
2022/10/31 06:02:11;;;;;;;7.80;5.20;;;;;;;7.76;100.00;96805.34;5012484;28;101812;-66
2022/10/31 06:05:08;;;;;;;5.27;4.40;;;;;;;7.71;100.00;96807.84;4989346;28;102485;-66
2022/10/31 06:07:36;;;;;;;5.87;4.53;;;;;;;7.80;100.00;96811.81;5009306;28;101853;-66
2022/10/31 06:10:06;;;;;;;6.03;4.73;;;;;;;7.83;100.00;96814.00;5008882;28;104901;-66
2022/10/31 06:12:43;;;;;;;8.63;5.27;;;;;;;7.93;100.00;96811.66;5019772;28;105240;-66
2022/10/31 06:15:18;;;;;;;9.37;4.93;;;;;;;7.95;100.00;96815.69;5028944;28;101766;-66
2022/10/31 06:17:46;;;;;;;8.67;5.50;;;;;;;7.86;100.00;96808.28;5028963;28;104948;-66
2022/10/31 06:20:35;;;;;;;6.70;4.40;;;;;;;7.88;100.00;96811.50;5028314;28;104854;-66
2022/10/31 06:23:35;;;;;;;7.23;4.30;;;;;;;7.86;100.00;96819.66;5032282;28;101869;-66
2022/10/31 06:26:25;;;;;;;6.60;4.20;;;;;;;7.82;100.00;96815.88;5025619;28;104375;-66
2022/10/31 06:28:53;;;;;;;5.80;4.77;;;;;;;7.85;100.00;96814.63;5028687;28;101981;-66
2022/10/31 06:32:03;;;;;;;5.60;4.40;;;;;;;7.92;100.00;96815.34;5029557;27;103681;-66
2022/10/31 06:34:32;;;;;;;9.63;5.67;;;;;;;7.97;100.00;96812.81;5022784;28;103796;-66
2022/10/31 06:37:00;;;;;;;6.63;5.20;;;;;;;8.08;100.00;96817.38;5014291;28;102304;-66
2022/10/31 06:39:28;;;;;;;8.10;5.87;;;;;;;8.21;100.00;96812.72;5011907;28;104915;-66
2022/10/31 06:45:43;;;;;;;12.83;8.37;;;;;;;8.72;100.00;96817.47;5010034;28;101723;-66
2022/10/31 06:48:15;;;;;;;12.03;7.87;;;;;;;8.82;100.00;96820.34;5015411;28;102203;-67
2022/10/31 06:51:40;;;;;;;13.87;8.33;;;;;;;8.85;100.00;96820.72;5012305;28;101866;-66
2022/10/31 06:54:07;;;;;;;14.97;8.03;;;;;;;9.06;100.00;96819.34;5011721;28;104905;-66
2022/10/31 06:56:35;;;;;;;11.73;8.13;;;;;;;9.29;100.00;96829.97;5010951;28;104128;-67
2022/10/31 06:59:03;;;;;;;10.90;7.37;;;;;;;9.18;100.00;96825.47;5011534;28;101910;-67
2022/10/31 07:02:16;;;;;;;9.90;7.43;;;;;;;9.25;100.00;96826.16;5010202;28;101910;-66
2022/10/31 07:04:46;;;;;;;10.00;7.07;;;;;;;9.42;100.00;96819.09;5010789;28;105626;-67
2022/10/31 07:07:14;;;;;;;12.03;7.10;;;;;;;9.55;100.00;96822.31;5011501;28;101756;-66
2022/10/31 07:09:41;;;;;;;8.40;6.83;;;;;;;9.64;100.00;96820.13;5012641;28;102393;-67
2022/10/31 07:12:54;;;;;;;13.13;7.10;;;;;;;9.80;100.00;96814.91;5014133;28;105343;-67
2022/10/31 07:15:21;;;;;;;14.27;7.00;;;;;;;9.99;100.00;96823.50;5011354;28;104815;-67
2022/10/31 07:17:48;;;;;;;11.70;6.93;;;;;;;10.16;100.00;96821.75;5010607;28;105440;-67
2022/10/31 07:20:17;;;;;;;13.40;7.17;;;;;;;10.39;100.00;96821.66;5011278;28;101897;-67
2022/10/31 07:22:48;;;;;;;9.13;6.97;;;;;;;10.73;100.00;96820.66;5010709;28;104921;-66
2022/10/31 07:25:54;;;;;;;12.27;7.17;;;;;;;10.73;100.00;96813.47;5010276;28;105187;-66
2022/10/31 07:28:40;;;;;;;9.77;6.87;;;;;;;10.91;100.00;96815.91;5011432;28;101770;-66
2022/10/31 07:31:30;;;;;;;8.67;6.30;;;;;;;11.17;100.00;96819.78;4953803;28;103664;-66
2022/10/31 07:34:03;;;;;;;14.47;8.50;;;;;;;11.26;100.00;96819.13;4953741;28;104049;-67
2022/10/31 07:36:51;;;;;;;11.80;8.23;;;;;;;11.57;100.00;96820.38;4973810;28;101904;-66
2022/10/31 07:39:19;;;;;;;12.27;7.93;;;;;;;11.74;100.00;96821.16;4953446;28;105472;-66
2022/10/31 07:41:48;;;;;;;14.40;7.87;;;;;;;11.85;100.00;96817.56;4970349;28;101949;-67
2022/10/31 07:44:19;;;;;;;11.23;6.63;;;;;;;12.04;100.00;96817.00;4970236;28;104937;-67
2022/10/31 07:47:04;;;;;;;10.10;6.27;;;;;;;12.25;100.00;96808.19;4966870;28;102675;-66
2022/10/31 07:50:00;;;;;;;12.50;6.53;;;;;;;12.33;100.00;96807.72;4934466;28;102179;-67
2022/10/31 07:52:59;;;;;;;11.33;6.93;;;;;;;12.43;100.00;96809.72;4967832;28;102051;-66
2022/10/31 07:56:20;;;;;;;14.87;8.43;;;;;;;12.52;100.00;96803.66;4968722;28;102272;-67
2022/10/31 07:58:47;;;;;;;13.50;8.30;;;;;;;12.68;100.00;96807.28;4953495;28;102150;-67
2022/10/31 08:01:15;;;;;;;17.10;9.43;;;;;;;12.82;100.00;96803.16;4956507;28;103963;-66
2022/10/31 08:03:50;;;;;;;15.93;10.17;;;;;;;12.99;100.00;96798.50;4973203;28;101916;-66
2022/10/31 08:06:35;;;;;;;14.57;7.80;;;;;;;13.05;100.00;96792.97;4979161;28;102068;-67
2022/10/31 08:09:21;;;;;;;10.47;6.13;;;;;;;13.32;100.00;96793.69;5012810;28;105285;-66
2022/10/31 08:12:02;;;;;;;11.27;6.77;;;;;;;13.53;100.00;96784.72;5020818;28;102014;-66
2022/10/31 08:14:30;;;;;;;7.67;6.00;;;;;;;13.73;100.00;96786.72;5018675;28;104369;-67
2022/10/31 08:16:58;;;;;;;8.23;5.90;;;;;;;13.82;100.00;96787.81;5019871;28;104214;-66
2022/10/31 08:19:32;;;;;;;8.03;5.20;;;;;;;13.92;100.00;96782.50;5020990;28;102002;-66
2022/10/31 08:22:26;;;;;;;10.40;5.63;;;;;;;14.05;100.00;96776.66;5019623;28;105048;-67
2022/10/31 08:25:00;;;;;;;11.43;4.93;;;;;;;14.16;100.00;96773.75;5033067;28;104739;-67
2022/10/31 08:27:28;;;;;;;6.60;4.43;;;;;;;14.43;100.00;96776.25;5030339;28;105522;-64
2022/10/31 08:29:58;;;;;;;9.13;4.43;;;;;;;14.56;100.00;96778.44;5029664;28;105089;-64
2022/10/31 08:32:25;;;;;;;9.20;4.93;;;;;;;14.62;100.00;96766.66;5030391;28;101883;-64
2022/10/31 08:34:58;;;;;;;6.83;4.80;;;;;;;14.87;100.00;96764.81;5028564;27;102219;-64
2022/10/31 08:37:44;;;;;;;12.40;4.70;;;;;;;15.01;100.00;96765.06;5027974;28;102338;-64
2022/10/31 08:40:14;;;;;;;8.10;4.80;;;;;;;15.18;100.00;96762.91;5020128;28;101859;-64
2022/10/31 08:42:41;;;;;;;6.90;4.97;;;;;;;15.25;100.00;96761.56;5018496;28;102380;-64
2022/10/31 08:45:08;;;;;;;11.77;4.80;;;;;;;15.28;100.00;96765.56;5033214;28;105406;-64
2022/10/31 08:47:36;;;;;;;7.77;4.50;;;;;;;15.42;100.00;96753.28;5011821;28;104935;-64
2022/10/31 08:50:05;;;;;;;8.27;4.80;;;;;;;15.54;100.00;96754.56;5008643;28;106209;-64
2022/10/31 08:53:04;;;;;;;12.13;4.40;;;;;;;15.53;100.00;96755.63;5009917;28;102190;-64
2022/10/31 08:59:20;;;;;;;7.67;4.40;;;;;;;15.87;100.00;96742.38;5006782;28;102220;-64
2022/10/31 09:02:21;;;;;;;7.57;4.57;;;;;;;15.96;100.00;96735.38;5009127;28;101935;-64
2022/10/31 09:04:50;;;;;;;7.60;4.23;;;;;;;16.14;100.00;96738.22;5009568;28;103721;-64
2022/10/31 09:07:18;;;;;;;6.43;4.10;;;;;;;16.18;100.00;96733.13;5008836;28;105447;-64
2022/10/31 09:09:44;;;;;;;9.50;4.50;;;;;;;16.37;100.00;96734.06;5013077;28;101957;-64
2022/10/31 09:12:12;;;;;;;11.10;4.30;;;;;;;16.00;100.00;96726.50;5008232;28;105062;-64
2022/10/31 09:15:00;;;;;;;9.30;4.10;;;;;;;16.17;100.00;96728.81;5007980;28;101722;-64
2022/10/31 09:17:54;;;;;;;7.53;4.20;;;;;;;16.40;100.00;96725.50;5008782;28;102758;-64
2022/10/31 09:20:43;;;;;;;6.93;3.90;;;;;;;16.67;100.00;96723.94;5008902;28;102629;-64
2022/10/31 09:23:12;;;;;;;7.80;4.23;;;;;;;16.77;100.00;96717.69;5009210;28;101933;-64
2022/10/31 09:25:40;;;;;;;7.93;3.97;;;;;;;16.86;100.00;96716.00;5009201;28;105239;-64
2022/10/31 09:28:26;;;;;;;8.27;3.93;;;;;;;17.08;100.00;96708.28;5006853;28;102290;-64
2022/10/31 09:30:56;;;;;;;6.00;3.70;;;;;;;17.13;100.00;96711.75;5009221;28;101967;-64
2022/10/31 09:33:56;;;;;;;7.87;3.70;;;;;;;17.32;100.00;96712.63;5012481;28;103301;-63
2022/10/31 09:36:39;;;;;;;6.00;3.73;;;;;;;17.42;100.00;96706.34;5007187;28;101785;-63
2022/10/31 09:39:15;;;;;;;8.40;3.77;;;;;;;17.20;100.00;96693.41;5009167;28;104860;-63
2022/10/31 09:42:05;;;;;;;9.47;3.47;;;;;;;17.74;100.00;96706.53;5008430;28;104636;-63
2022/10/31 09:44:44;;;;;;;7.13;3.63;;;;;;;17.99;100.00;96695.47;5008670;28;102302;-64
2022/10/31 09:47:38;;;;;;;5.10;3.57;;;;;;;17.82;100.00;96695.94;5008903;28;104578;-64
2022/10/31 09:50:27;;;;;;;9.57;3.50;;;;;;;17.70;100.00;96702.81;5009405;28;102281;-64
2022/10/31 09:53:01;;;;;;;10.60;3.47;;;;;;;17.89;100.00;96687.50;5008527;28;102110;-64
2022/10/31 09:55:36;;;;;;;9.00;3.80;;;;;;;17.74;100.00;96693.88;5008870;28;104983;-64
2022/10/31 09:58:04;;;;;;;7.13;3.30;;;;;;;17.39;100.00;96683.53;5011254;28;105348;-64
2022/10/31 10:00:33;;;;;;;9.30;3.67;;;;;;;17.33;100.00;96681.16;5008672;28;105603;-64
2022/10/31 10:03:14;;;;;;;7.57;3.77;;;;;;;17.86;100.00;96680.81;5007875;28;105569;-64
2022/10/31 10:05:52;;;;;;;8.03;3.60;;;;;;;18.33;100.00;96674.53;5008450;28;102071;-64
2022/10/31 10:08:33;;;;;;;7.10;3.30;;;;;;;18.76;100.00;96667.94;5008756;28;105192;-64
2022/10/31 10:11:42;;;;;;;8.07;3.63;;;;;;;18.74;100.00;96670.91;5009534;28;102959;-64
2022/10/31 10:14:40;;;;;;;6.40;3.70;;;;;;;18.48;100.00;96669.72;5011911;28;102010;-64
2022/10/31 10:17:21;;;;;;;9.23;3.77;;;;;;;19.01;100.00;96659.44;5008196;28;102447;-64
2022/10/31 10:20:23;;;;;;;6.07;3.63;;;;;;;19.18;100.00;96660.44;5011308;28;103839;-64
2022/10/31 10:22:58;;;;;;;8.73;3.27;;;;;;;19.24;100.00;96663.88;5016662;28;101770;-64
2022/10/31 10:25:29;;;;;;;7.60;2.80;;;;;;;19.72;100.00;96659.69;5012820;28;102593;-64
2022/10/31 10:28:08;;;;;;;7.07;3.27;;;;;;;19.83;100.00;96661.09;5013080;28;101770;-64
2022/10/31 10:30:41;;;;;;;7.17;2.90;;;;;;;20.10;100.00;96650.28;5011972;28;103653;-64
2022/10/31 10:33:12;;;;;;;6.03;3.10;;;;;;;20.19;100.00;96648.41;5012749;28;103195;-64
2022/10/31 10:35:45;;;;;;;7.70;2.83;;;;;;;20.18;100.00;96649.53;5011687;28;101956;-63
2022/10/31 10:38:18;;;;;;;5.93;2.97;;;;;;;20.30;100.00;96641.69;5011453;28;105315;-64
2022/10/31 10:40:46;;;;;;;5.70;3.00;;;;;;;20.63;100.00;96640.34;5011000;28;105748;-63
2022/10/31 10:43:23;;;;;;;8.37;3.20;;;;;;;20.43;100.00;96627.34;5011732;28;102061;-63
2022/10/31 10:48:45;;;;;;;5.60;3.63;;;;;;;19.69;100.00;96630.59;5010819;28;102877;-64
2022/10/31 10:51:21;;;;;;;8.73;3.20;;;;;;;19.33;100.00;96630.53;5012796;28;102461;-64
2022/10/31 10:54:02;;;;;;;8.60;3.30;;;;;;;19.09;100.00;96624.50;5012563;28;102663;-64
2022/10/31 10:56:43;;;;;;;10.60;3.63;;;;;;;19.11;100.00;96629.56;5012906;28;101713;-64
2022/10/31 10:59:14;;;;;;;8.43;4.10;;;;;;;19.35;100.00;96622.13;5012997;28;102321;-64
2022/10/31 11:01:42;;;;;;;6.03;3.73;;;;;;;19.27;100.00;96623.63;5010839;28;103804;-64
2022/10/31 11:04:26;;;;;;;4.93;3.30;;;;;;;19.57;100.00;96623.00;5010987;28;101947;-64
2022/10/31 11:07:04;;;;;;;6.93;3.50;;;;;;;19.53;100.00;96607.72;5014397;28;105629;-64
2022/10/31 11:09:32;;;;;;;6.77;3.57;;;;;;;19.52;100.00;96608.84;5011319;28;102002;-64
2022/10/31 11:11:59;;;;;;;12.60;3.63;;;;;;;19.71;100.00;96604.09;5012513;28;102329;-64
2022/10/31 11:14:27;;;;;;;8.37;3.53;;;;;;;19.53;100.00;96602.34;5011724;28;102603;-64
2022/10/31 11:17:07;;;;;;;7.70;4.00;;;;;;;19.56;100.00;96594.44;5012362;28;101864;-64
2022/10/31 11:19:34;;;;;;;6.17;3.43;;;;;;;19.63;100.00;96594.03;5012712;28;102676;-64
2022/10/31 11:22:09;;;;;;;6.47;3.60;;;;;;;19.62;100.00;96593.22;5010007;28;104046;-64
2022/10/31 11:24:42;;;;;;;5.87;3.60;;;;;;;19.43;100.00;96591.75;5012594;28;101938;-64
2022/10/31 11:27:17;;;;;;;10.83;3.63;;;;;;;19.00;100.00;96585.03;5012228;28;102024;-64
2022/10/31 11:29:45;;;;;;;10.53;4.40;;;;;;;18.77;100.00;96584.13;5015244;28;102537;-64
2022/10/31 11:32:21;;;;;;;9.23;3.80;;;;;;;18.61;100.00;96581.97;5010838;28;103384;-64
2022/10/31 11:34:52;;;;;;;9.27;4.30;;;;;;;18.58;100.00;96585.28;5010201;28;105362;-64
2022/10/31 11:37:24;;;;;;;8.67;3.80;;;;;;;18.58;100.00;96577.19;5010775;28;101803;-64
2022/10/31 11:39:54;;;;;;;10.50;4.10;;;;;;;18.68;100.00;96575.09;5010721;28;105640;-64
2022/10/31 11:42:24;;;;;;;7.77;3.33;;;;;;;18.91;100.00;96578.75;5009761;28;105342;-63
2022/10/31 11:44:52;;;;;;;8.70;3.77;;;;;;;19.07;100.00;96566.59;5010734;28;101854;-64
2022/10/31 11:47:26;;;;;;;8.37;3.73;;;;;;;19.02;100.00;96567.47;5010609;28;105180;-64
2022/10/31 11:49:53;;;;;;;7.03;3.47;;;;;;;18.90;100.00;96566.34;5009476;28;105107;-64
2022/10/31 11:52:25;;;;;;;8.67;4.10;;;;;;;18.93;100.00;96568.47;5015430;28;102293;-64
2022/10/31 11:54:55;;;;;;;9.43;3.60;;;;;;;18.96;100.00;96560.56;5010005;28;105526;-64
2022/10/31 11:57:28;;;;;;;9.17;4.27;;;;;;;18.92;100.00;96556.88;5018017;28;101778;-64
2022/10/31 11:59:57;;;;;;;5.20;3.87;;;;;;;18.71;100.00;96552.16;5031916;27;102323;-64
2022/10/31 12:02:25;;;;;;;7.53;3.70;;;;;;;18.82;100.00;96550.88;5031143;27;102587;-64
2022/10/31 12:04:59;;;;;;;7.87;4.03;;;;;;;18.77;100.00;96545.59;5030450;28;102465;-64
2022/10/31 12:07:27;;;;;;;7.67;3.90;;;;;;;18.68;100.00;96536.59;5032021;27;102357;-64
2022/10/31 12:09:54;;;;;;;8.10;4.23;;;;;;;18.82;100.00;96543.59;5031100;27;103076;-64